createdAt,value
2019-05-22T00:02:37.819Z,64.65
2019-05-22T00:05:13.988Z,65.13
2019-05-22T00:07:45.507Z,65.48
2019-05-22T00:10:22.888Z,65.37
2019-05-22T00:12:53.826Z,65.42
2019-05-22T00:15:24.296Z,65.13
2019-05-22T00:17:54.034Z,64.51
2019-05-22T00:20:26.758Z,64.98
2019-05-22T00:22:56.344Z,64.62
2019-05-22T00:25:28.447Z,64.51
2019-05-22T00:27:59.424Z,64.60
2019-05-22T00:30:32.804Z,64.64
2019-05-22T00:33:02.557Z,64.15
2019-05-22T00:35:33.146Z,63.70
2019-05-22T00:38:06.718Z,63.70
2019-05-22T00:40:42.137Z,64.31
2019-05-22T00:43:14.184Z,64.39
2019-05-22T00:45:48.882Z,64.86
2019-05-22T00:48:24.898Z,64.18
2019-05-22T00:51:09.997Z,64.05
2019-05-22T00:53:58.296Z,64.51
2019-05-22T00:56:35.995Z,65.78
2019-05-22T00:59:11.484Z,65.69
2019-05-22T01:01:47.300Z,64.59
2019-05-22T01:04:22.116Z,64.63
2019-05-22T01:06:54.299Z,64.39
2019-05-22T01:09:26.698Z,64.56
2019-05-22T01:11:55.753Z,64.29
2019-05-22T01:14:41.918Z,64.83
2019-05-22T01:16:59.476Z,64.23
2019-05-22T01:19:30.111Z,64.41
2019-05-22T01:22:01.942Z,63.79
2019-05-22T01:24:32.618Z,64.34
2019-05-22T01:27:01.907Z,64.12
2019-05-22T01:29:32.531Z,64.12
2019-05-22T01:32:25.944Z,65.14
2019-05-22T01:34:56.429Z,64.22
2019-05-22T01:37:27.396Z,63.41
2019-05-22T01:40:04.311Z,62.96
2019-05-22T01:42:41.294Z,63.40
2019-05-22T01:45:13.619Z,62.95
2019-05-22T01:47:59.413Z,63.22
2019-05-22T01:50:46.981Z,62.54
2019-05-22T01:53:23.493Z,62.36
2019-05-22T01:55:57.893Z,63.50
2019-05-22T01:58:30.511Z,63.58
2019-05-22T02:01:02.359Z,63.57
2019-05-22T02:03:33.611Z,62.42
2019-05-22T02:06:06.408Z,62.90
2019-05-22T02:08:43.582Z,62.90
2019-05-22T02:11:17.516Z,62.63
2019-05-22T02:14:07.157Z,62.63
2019-05-22T02:16:37.605Z,61.42
2019-05-22T02:19:08.070Z,61.57
2019-05-22T02:21:37.600Z,61.57
2019-05-22T02:24:09.288Z,61.90
2019-05-22T02:26:41.558Z,61.90
2019-05-22T02:29:12.665Z,61.12
2019-05-22T02:31:43.551Z,61.12
2019-05-22T02:34:14.509Z,62.76
2019-05-22T02:36:45.257Z,62.76
2019-05-22T02:39:23.465Z,62.72
2019-05-22T02:42:04.628Z,62.01
2019-05-22T02:44:34.517Z,62.45
2019-05-22T02:47:18.328Z,62.49
2019-05-22T02:49:36.767Z,62.93
2019-05-22T02:52:08.919Z,62.76
2019-05-22T02:54:39.378Z,62.85
2019-05-22T02:57:11.117Z,62.57
2019-05-22T02:59:42.597Z,62.53
2019-05-22T03:02:12.511Z,61.72
2019-05-22T03:05:02.809Z,62.13
2019-05-22T03:10:22.017Z,61.34
2019-05-22T03:12:53.904Z,62.22
2019-05-22T03:15:26.637Z,62.47
2019-05-22T03:17:59.243Z,62.72
2019-05-22T03:20:29.311Z,62.47
2019-05-22T03:23:38.481Z,63.01
2019-05-22T03:26:12.697Z,62.94
2019-05-22T03:28:43.403Z,62.78
2019-05-22T03:31:15.242Z,62.24
2019-05-22T03:33:44.975Z,61.63
2019-05-22T03:36:18.331Z,61.98
2019-05-22T03:38:48.666Z,61.47
2019-05-22T03:41:18.853Z,61.21
2019-05-22T03:43:50.637Z,60.87
2019-05-22T03:46:41.531Z,60.06
2019-05-22T03:49:30.156Z,60.06
2019-05-22T03:51:50.063Z,60.20
2019-05-22T03:54:19.637Z,60.45
2019-05-22T03:56:48.816Z,59.90
2019-05-22T03:59:18.129Z,60.73
2019-05-22T04:01:47.108Z,60.87
2019-05-22T04:04:36.654Z,61.33
2019-05-22T04:07:11.118Z,61.16
2019-05-22T04:09:43.508Z,61.27
2019-05-22T04:12:14.801Z,61.95
2019-05-22T04:14:45.978Z,61.29
2019-05-22T04:17:15.596Z,61.71
2019-05-22T04:19:50.250Z,61.55
2019-05-22T04:22:16.895Z,61.33
2019-05-22T04:24:48.439Z,60.87
2019-05-22T04:27:18.060Z,60.34
2019-05-22T04:29:50.591Z,60.51
2019-05-22T04:32:32.451Z,59.75
2019-05-22T04:35:04.663Z,59.75
2019-05-22T04:37:35.646Z,60.31
2019-05-22T04:40:54.901Z,60.00
2019-05-22T04:43:30.452Z,60.00
2019-05-22T04:46:05.636Z,60.17
2019-05-22T04:48:35.822Z,60.00
2019-05-22T04:51:25.602Z,60.12
2019-05-22T04:53:55.892Z,60.12
2019-05-22T04:56:27.579Z,60.12
2019-05-22T04:58:59.742Z,59.87
2019-05-22T05:01:27.970Z,59.17
2019-05-22T05:03:58.283Z,58.08
2019-05-22T05:06:29.387Z,55.43
2019-05-22T05:08:59.854Z,56.30
2019-05-22T05:11:29.589Z,56.60
2019-05-22T05:13:57.963Z,56.35
2019-05-22T05:16:26.899Z,56.87
2019-05-22T05:18:56.488Z,57.00
2019-05-22T05:21:25.842Z,57.35
2019-05-22T05:26:26.334Z,57.04
2019-05-22T05:28:56.574Z,56.84
2019-05-22T05:31:25.637Z,57.45
2019-05-22T05:34:21.001Z,56.77
2019-05-22T05:36:51.598Z,56.77
2019-05-22T05:40:26.941Z,57.34
2019-05-22T05:42:56.914Z,57.34
2019-05-22T05:45:27.763Z,57.28
2019-05-22T05:47:57.466Z,57.67
2019-05-22T05:50:38.907Z,56.91
2019-05-22T05:52:59.562Z,56.92
2019-05-22T05:55:49.117Z,57.08
2019-05-22T05:58:30.427Z,56.18
2019-05-22T06:01:27.712Z,56.53
2019-05-22T06:03:59.839Z,56.46
2019-05-22T06:07:18.918Z,54.85
2019-05-22T06:10:38.940Z,55.35
2019-05-22T06:13:08.829Z,55.62
2019-05-22T06:17:04.423Z,54.33
2019-05-22T06:19:40.603Z,53.42
2019-05-22T06:22:10.946Z,53.86
2019-05-22T06:25:03.636Z,53.86
2019-05-22T06:27:54.836Z,52.85
2019-05-22T06:30:47.136Z,52.46
2019-05-22T06:33:44.803Z,52.93
2019-05-22T06:36:20.576Z,52.14
2019-05-22T06:39:14.590Z,53.05
2019-05-22T06:41:45.967Z,51.74
2019-05-22T06:44:42.993Z,52.97
2019-05-22T06:50:26.016Z,51.40
2019-05-22T06:53:08.898Z,51.45
2019-05-22T06:55:26.619Z,50.84
2019-05-22T06:57:55.695Z,50.92
2019-05-22T07:00:26.597Z,50.92
2019-05-22T07:02:55.951Z,51.76
2019-05-22T07:05:25.324Z,51.76
2019-05-22T07:07:56.118Z,51.60
2019-05-22T07:10:26.648Z,51.72
2019-05-22T07:12:58.441Z,52.37
2019-05-22T07:15:41.383Z,50.20
2019-05-22T07:18:13.013Z,49.30
2019-05-22T07:23:02.896Z,49.71
2019-05-22T07:25:34.794Z,50.23
2019-05-22T07:28:06.439Z,49.35
2019-05-22T07:30:36.129Z,48.08
2019-05-22T07:33:07.681Z,50.26
2019-05-22T07:35:56.193Z,48.95
2019-05-22T07:38:08.977Z,49.05
2019-05-22T07:40:38.303Z,48.44
2019-05-22T07:43:07.709Z,48.74
2019-05-22T07:45:39.773Z,48.88
2019-05-22T07:48:13.247Z,49.40
2019-05-22T07:50:48.057Z,49.40
2019-05-22T07:53:16.533Z,47.44
2019-05-22T07:55:48.724Z,45.30
2019-05-22T07:58:17.994Z,45.30
2019-05-22T08:00:58.586Z,43.45
2019-05-22T08:03:30.296Z,43.33
2019-05-22T08:06:00.409Z,42.48
2019-05-22T08:08:34.520Z,40.83
2019-05-22T08:11:04.907Z,41.04
2019-05-22T08:13:34.915Z,39.87
2019-05-22T08:16:05.405Z,41.07
2019-05-22T08:18:36.750Z,40.65
2019-05-22T08:21:05.059Z,39.31
2019-05-22T08:23:34.577Z,39.47
2019-05-22T08:26:04.655Z,38.16
2019-05-22T08:28:34.069Z,38.55
2019-05-22T08:31:04.855Z,38.55
2019-05-22T08:33:35.962Z,38.60
2019-05-22T08:36:06.287Z,35.40
2019-05-22T08:38:36.688Z,35.70
2019-05-22T08:41:08.542Z,33.43
2019-05-22T08:44:03.168Z,33.43
2019-05-22T08:46:12.440Z,28.52
2019-05-22T08:48:48.164Z,25.99
2019-05-22T08:51:14.167Z,28.21
2019-05-22T08:53:48.027Z,27.02
2019-05-22T08:56:15.966Z,28.08
2019-05-22T08:58:45.746Z,27.56
2019-05-22T09:01:15.069Z,29.48
2019-05-22T09:03:44.718Z,29.04
2019-05-22T09:06:14.189Z,29.33
2019-05-22T09:08:43.792Z,26.94
2019-05-22T09:11:13.304Z,28.66
2019-05-22T09:13:42.745Z,28.96
2019-05-22T09:16:12.819Z,29.68
2019-05-22T09:18:42.127Z,29.87
2019-05-22T09:21:12.837Z,29.19
2019-05-22T09:23:43.823Z,29.23
2019-05-22T09:26:13.729Z,30.71
2019-05-22T09:28:42.381Z,34.57
2019-05-22T09:31:12.070Z,33.22
2019-05-22T09:33:41.455Z,32.75
2019-05-22T09:36:12.627Z,32.66
2019-05-22T09:38:43.595Z,33.12
2019-05-22T09:41:12.997Z,34.63
2019-05-22T09:43:42.928Z,34.63
2019-05-22T09:46:14.502Z,34.41
2019-05-22T09:48:43.060Z,35.08
2019-05-22T09:51:13.056Z,35.08
2019-05-22T09:53:43.353Z,36.03
2019-05-22T09:56:14.406Z,35.92
2019-05-22T09:58:43.657Z,35.69
2019-05-22T10:01:13.008Z,36.82
2019-05-22T10:03:43.419Z,39.16
2019-05-22T10:06:13.527Z,37.76
2019-05-22T10:08:43.417Z,37.81
2019-05-22T10:11:12.942Z,38.60
2019-05-22T10:13:42.067Z,37.57
2019-05-22T10:16:11.952Z,39.37
2019-05-22T10:18:42.290Z,39.22
2019-05-22T10:21:12.586Z,39.73
2019-05-22T10:23:43.549Z,37.02
2019-05-22T10:26:12.910Z,37.73
2019-05-22T10:31:11.849Z,35.97
2019-05-22T10:33:42.477Z,36.60
2019-05-22T10:36:12.049Z,35.69
2019-05-22T10:38:42.433Z,36.37
2019-05-22T10:41:12.859Z,36.37
2019-05-22T10:43:43.175Z,36.37
2019-05-22T10:46:13.659Z,36.86
2019-05-22T10:48:42.614Z,35.32
2019-05-22T10:51:13.541Z,34.82
2019-05-22T10:53:43.948Z,34.21
2019-05-22T10:56:13.461Z,34.21
2019-05-22T10:58:43.397Z,34.00
2019-05-22T11:01:13.565Z,33.83
2019-05-22T11:03:42.641Z,33.19
2019-05-22T11:06:12.607Z,32.22
2019-05-22T11:08:42.255Z,32.22
2019-05-22T11:11:12.421Z,31.64
2019-05-22T11:14:00.170Z,32.50
2019-05-22T11:16:15.230Z,31.79
2019-05-22T11:18:45.444Z,30.85
2019-05-22T11:21:14.637Z,30.94
2019-05-22T11:23:51.805Z,32.30
2019-05-22T11:26:15.571Z,31.20
2019-05-22T11:28:44.525Z,31.40
2019-05-22T11:33:00.843Z,33.28
2019-05-22T11:35:31.384Z,31.28
2019-05-22T11:38:00.831Z,31.75
2019-05-22T11:40:30.428Z,31.62
2019-05-22T11:42:59.739Z,31.88
2019-05-22T11:45:29.225Z,32.77
2019-05-22T11:47:58.599Z,34.00
2019-05-22T11:50:29.465Z,33.73
2019-05-22T11:54:37.540Z,33.70
2019-05-22T11:57:06.576Z,34.28
2019-05-22T11:59:36.494Z,32.46
2019-05-22T12:02:07.585Z,32.46
2019-05-22T12:04:47.930Z,24.86
2019-05-22T12:07:11.183Z,24.86
2019-05-22T12:09:41.480Z,23.38
2019-05-22T12:12:11.544Z,21.54
2019-05-22T12:14:41.414Z,21.91
2019-05-22T12:17:12.137Z,22.23
2019-05-22T12:19:42.302Z,24.50
2019-05-22T12:22:11.967Z,23.63
2019-05-22T12:24:42.743Z,23.40
2019-05-22T12:27:12.410Z,20.05
2019-05-22T12:29:43.950Z,17.29
2019-05-22T12:32:14.557Z,19.05
2019-05-22T12:34:44.091Z,17.98
2019-05-22T12:37:14.482Z,19.15
2019-05-22T12:39:45.749Z,24.72
2019-05-22T12:42:19.116Z,26.64
2019-05-22T12:44:49.738Z,24.89
2019-05-22T12:47:18.938Z,24.82
2019-05-22T12:49:49.218Z,23.97
2019-05-22T12:52:19.573Z,26.52
2019-05-22T12:54:52.880Z,30.24
2019-05-22T12:57:21.751Z,30.24
2019-05-22T12:59:51.956Z,27.58
2019-05-22T13:02:23.464Z,28.04
2019-05-22T13:04:54.119Z,25.43
2019-05-22T13:07:23.788Z,26.82
2019-05-22T13:09:51.968Z,24.46
2019-05-22T13:12:22.100Z,26.19
2019-05-22T13:15:07.925Z,25.44
2019-05-22T13:17:25.619Z,25.48
2019-05-22T13:19:56.290Z,25.48
2019-05-22T13:22:26.928Z,23.54
2019-05-22T13:24:57.447Z,26.46
2019-05-22T13:27:26.839Z,30.55
2019-05-22T13:29:56.935Z,31.28
2019-05-22T13:32:27.615Z,30.65
2019-05-22T13:34:56.463Z,32.28
2019-05-22T13:37:25.783Z,31.88
2019-05-22T13:39:55.769Z,31.51
2019-05-22T13:42:26.579Z,30.81
2019-05-22T13:44:56.689Z,35.80
2019-05-22T13:47:25.467Z,32.91
2019-05-22T13:49:55.140Z,32.91
2019-05-22T13:52:50.630Z,33.60
2019-05-22T13:55:20.828Z,32.76
2019-05-22T13:57:50.837Z,32.76
2019-05-22T14:00:22.656Z,33.09
2019-05-22T14:02:52.599Z,33.10
2019-05-22T14:05:24.801Z,31.08
2019-05-22T14:07:54.002Z,31.08
2019-05-22T14:10:27.483Z,29.70
2019-05-22T14:12:58.035Z,27.27
2019-05-22T14:15:47.366Z,26.62
2019-05-22T14:17:59.744Z,27.92
2019-05-22T14:20:29.490Z,29.34
2019-05-22T14:22:58.764Z,27.99
2019-05-22T14:25:29.682Z,28.70
2019-05-22T14:27:59.885Z,28.11
2019-05-22T14:30:30.427Z,26.85
2019-05-22T14:33:04.121Z,27.82
2019-05-22T14:35:47.609Z,30.53
2019-05-22T14:38:06.640Z,28.52
2019-05-22T14:40:37.862Z,28.59
2019-05-22T14:43:07.773Z,26.85
2019-05-22T14:45:37.565Z,26.04
2019-05-22T14:48:07.867Z,26.36
2019-05-22T14:50:37.927Z,26.36
2019-05-22T14:53:07.308Z,26.60
2019-05-22T14:55:38.817Z,27.08
2019-05-22T14:58:09.481Z,27.43
2019-05-22T15:00:39.706Z,28.68
2019-05-22T15:03:08.580Z,28.19
2019-05-22T15:05:38.555Z,28.43
2019-05-22T15:08:08.596Z,28.43
2019-05-22T15:10:37.544Z,29.20
2019-05-22T15:13:07.975Z,31.54
2019-05-22T15:15:40.523Z,35.32
2019-05-22T15:18:08.915Z,35.56
2019-05-22T15:20:46.539Z,35.56
2019-05-22T15:23:15.740Z,36.08
2019-05-22T15:25:44.999Z,35.17
2019-05-22T15:28:15.597Z,34.78
2019-05-22T15:30:46.697Z,35.20
2019-05-22T15:33:16.514Z,34.76
2019-05-22T15:35:46.423Z,34.75
2019-05-22T15:38:16.505Z,33.17
2019-05-22T15:40:46.402Z,35.01
2019-05-22T15:43:16.548Z,35.01
2019-05-22T15:45:46.523Z,34.51
2019-05-22T15:48:27.455Z,34.51
2019-05-22T15:51:05.520Z,34.14
2019-05-22T15:53:38.565Z,31.92
2019-05-22T15:56:10.994Z,31.92
2019-05-22T15:58:51.732Z,30.27
2019-05-22T16:01:25.639Z,29.96
2019-05-22T16:03:57.595Z,29.53
2019-05-22T16:06:28.410Z,30.81
2019-05-22T16:08:58.886Z,31.76
2019-05-22T16:11:30.816Z,31.76
2019-05-22T16:14:01.351Z,33.30
2019-05-22T16:16:32.607Z,35.51
2019-05-22T16:19:06.655Z,35.42
2019-05-22T16:21:43.623Z,37.74
2019-05-22T16:24:13.519Z,37.74
2019-05-22T16:26:42.982Z,35.46
2019-05-22T16:29:14.595Z,34.76
2019-05-22T16:31:46.496Z,33.78
2019-05-22T16:34:17.647Z,33.78
2019-05-22T16:36:46.463Z,33.03
2019-05-22T16:39:17.694Z,31.65
2019-05-22T16:41:46.940Z,32.22
2019-05-22T16:44:16.662Z,30.92
2019-05-22T16:46:47.598Z,31.96
2019-05-22T16:49:16.346Z,31.96
2019-05-22T16:51:48.300Z,32.65
2019-05-22T16:54:20.948Z,31.15
2019-05-22T16:56:52.169Z,30.87
2019-05-22T17:00:01.774Z,32.07
2019-05-22T17:02:34.077Z,31.22
2019-05-22T17:05:07.923Z,31.29
2019-05-22T17:07:39.478Z,30.77
2019-05-22T17:10:11.013Z,30.69
2019-05-22T17:12:41.579Z,31.68
2019-05-22T17:15:16.942Z,31.07
2019-05-22T17:17:46.564Z,30.46
2019-05-22T17:20:19.834Z,32.55
2019-05-22T17:22:49.140Z,32.55
2019-05-22T17:25:20.549Z,32.05
2019-05-22T17:27:50.581Z,32.47
2019-05-22T17:30:23.643Z,32.85
2019-05-22T17:32:52.651Z,32.85
2019-05-22T17:35:23.737Z,32.64
2019-05-22T17:37:54.630Z,32.64
2019-05-22T17:40:24.901Z,33.13
2019-05-22T17:42:55.507Z,33.13
2019-05-22T17:45:28.424Z,34.11
2019-05-22T17:48:01.341Z,34.11
2019-05-22T17:50:30.642Z,33.54
2019-05-22T17:53:00.846Z,33.85
2019-05-22T17:55:30.654Z,34.33
2019-05-22T17:58:00.246Z,34.20
2019-05-22T18:00:37.129Z,34.35
2019-05-22T18:03:19.462Z,34.81
2019-05-22T18:05:49.927Z,34.50
2019-05-22T18:08:20.111Z,35.12
2019-05-22T18:10:50.610Z,35.65
2019-05-22T18:13:20.528Z,35.80
2019-05-22T18:15:49.727Z,36.04
2019-05-22T18:18:18.744Z,35.72
2019-05-22T18:20:47.044Z,37.04
2019-05-22T18:23:17.538Z,37.65
2019-05-22T18:25:46.435Z,37.58
2019-05-22T18:28:16.556Z,38.50
2019-05-22T18:30:46.567Z,39.65
2019-05-22T18:33:16.492Z,40.51
2019-05-22T18:35:47.305Z,40.16
2019-05-22T18:38:17.301Z,40.16
2019-05-22T18:40:47.375Z,40.39
2019-05-22T18:43:18.942Z,41.50
2019-05-22T18:45:48.505Z,40.98
2019-05-22T18:48:17.738Z,41.85
2019-05-22T18:50:47.868Z,42.54
2019-05-22T18:53:17.473Z,43.09
2019-05-22T18:55:47.754Z,43.74
2019-05-22T18:58:17.588Z,43.27
2019-05-22T19:00:46.562Z,44.25
2019-05-22T19:03:16.595Z,44.25
2019-05-22T19:05:46.041Z,44.97
2019-05-22T19:08:16.508Z,44.97
2019-05-22T19:10:46.017Z,45.82
2019-05-22T19:13:15.139Z,45.82
2019-05-22T19:19:38.415Z,47.02
2019-05-22T19:22:07.690Z,47.35
2019-05-22T19:24:37.197Z,48.09
2019-05-22T19:27:06.774Z,47.99
2019-05-22T19:29:36.168Z,47.85
2019-05-22T19:32:05.441Z,48.10
2019-05-22T19:34:35.533Z,48.43
2019-05-22T19:37:04.542Z,48.50
2019-05-22T19:39:34.253Z,48.60
2019-05-22T19:42:05.698Z,49.15
2019-05-22T19:44:35.700Z,49.46
2019-05-22T19:47:06.474Z,50.32
2019-05-22T19:49:35.943Z,50.96
2019-05-22T19:52:10.708Z,50.56
2019-05-22T19:54:40.929Z,50.72
2019-05-22T19:57:11.920Z,51.52
2019-05-22T19:59:41.148Z,53.08
2019-05-22T20:02:14.302Z,52.99
2019-05-22T20:04:43.288Z,54.56
2019-05-22T20:07:13.643Z,54.56
2019-05-22T20:09:45.120Z,54.79
2019-05-22T20:12:14.928Z,55.31
2019-05-22T20:14:44.324Z,55.59
2019-05-22T20:17:15.117Z,55.21
2019-05-22T20:19:45.528Z,55.25
2019-05-22T20:22:15.307Z,55.84
2019-05-22T20:24:45.308Z,56.12
2019-05-22T20:27:15.186Z,56.60
2019-05-22T20:29:46.495Z,57.43
2019-05-22T20:32:17.625Z,58.22
2019-05-22T20:34:48.838Z,58.15
2019-05-22T20:37:18.567Z,58.15
2019-05-22T20:39:47.708Z,58.10
2019-05-22T20:42:18.319Z,58.71
2019-05-22T20:44:48.473Z,58.64
2019-05-22T20:47:24.696Z,57.66
2019-05-22T20:49:54.567Z,57.93
2019-05-22T20:52:24.323Z,57.93
2019-05-22T20:54:54.089Z,58.35
2019-05-22T20:57:25.746Z,59.54
2019-05-22T20:59:55.116Z,58.67
2019-05-22T21:02:26.639Z,59.28
2019-05-22T21:04:56.450Z,58.70
2019-05-22T21:07:37.654Z,58.70
2019-05-22T21:10:08.321Z,58.73
2019-05-22T21:12:38.703Z,58.73
2019-05-22T21:15:08.023Z,58.82
2019-05-22T21:17:39.202Z,58.91
2019-05-22T21:20:13.141Z,59.48
2019-05-22T21:22:42.973Z,59.36
2019-05-22T21:25:13.020Z,60.47
2019-05-22T21:27:42.822Z,59.46
2019-05-22T21:30:14.186Z,60.23
2019-05-22T21:32:47.311Z,60.99
2019-05-22T21:35:20.766Z,60.84
2019-05-22T21:37:50.038Z,60.43
2019-05-22T21:40:23.029Z,60.84
2019-05-22T21:42:54.934Z,60.95
2019-05-22T21:45:24.925Z,61.27
2019-05-22T21:47:54.724Z,61.37
2019-05-22T21:50:25.311Z,61.58
2019-05-22T21:52:54.821Z,61.29
2019-05-22T21:55:24.951Z,59.94
2019-05-22T21:57:56.083Z,60.24
2019-05-22T22:00:48.384Z,61.28
2019-05-22T22:03:22.584Z,61.53
2019-05-22T22:05:51.942Z,61.48
2019-05-22T22:08:22.136Z,61.48
2019-05-22T22:10:51.827Z,62.20
2019-05-22T22:13:27.074Z,62.56
2019-05-22T22:15:56.956Z,62.83
2019-05-22T22:18:27.181Z,62.72
2019-05-22T22:20:57.503Z,62.40
2019-05-22T22:23:28.917Z,62.29
2019-05-22T22:25:59.757Z,62.29
2019-05-22T22:28:30.461Z,62.26
2019-05-22T22:34:46.140Z,63.55
2019-05-22T22:37:18.549Z,63.49
2019-05-22T22:39:54.464Z,63.85
2019-05-22T22:42:28.302Z,63.63
2019-05-22T22:44:59.508Z,64.32
2019-05-22T22:47:39.220Z,64.45
2019-05-22T22:50:09.131Z,64.72
2019-05-22T22:52:39.424Z,65.10
2019-05-22T22:55:13.591Z,64.40
2019-05-22T22:57:43.692Z,65.55
2019-05-22T23:00:16.582Z,65.55
2019-05-22T23:02:48.191Z,64.63
2019-05-22T23:05:18.596Z,64.31
2019-05-22T23:07:48.543Z,64.28
2019-05-22T23:10:20.939Z,64.28
2019-05-22T23:12:55.087Z,65.00
2019-05-22T23:15:25.908Z,65.13
2019-05-22T23:17:55.462Z,64.94
2019-05-22T23:20:22.400Z,64.65
2019-05-22T23:22:49.294Z,65.57
2019-05-22T23:25:20.605Z,65.62
2019-05-22T23:27:50.532Z,65.26
2019-05-22T23:30:20.937Z,65.26
2019-05-22T23:32:53.758Z,65.23
2019-05-22T23:35:25.030Z,65.25
2019-05-22T23:37:54.311Z,65.70
2019-05-22T23:40:31.064Z,65.62
2019-05-22T23:43:01.414Z,64.79
2019-05-22T23:45:30.434Z,64.42
2019-05-22T23:48:16.422Z,64.43
2019-05-22T23:50:47.596Z,64.33
2019-05-22T23:53:17.773Z,65.51
2019-05-22T23:55:48.162Z,65.51
2019-05-22T23:58:19.564Z,65.50
